sensor_id;sensor_type;location;lat;lon;timestamp;temperature;humidity
55313;DHT22;46892;45.668;11.756;2023-05-10T00:01:37;16.30;60.50
55313;DHT22;46892;45.668;11.756;2023-05-10T00:04:03;16.20;60.90
55313;DHT22;46892;45.668;11.756;2023-05-10T00:06:29;16.20;61.20
55313;DHT22;46892;45.668;11.756;2023-05-10T00:08:55;16.10;61.50
55313;DHT22;46892;45.668;11.756;2023-05-10T00:11:21;16.00;60.90
55313;DHT22;46892;45.668;11.756;2023-05-10T00:13:47;16.00;61.30
55313;DHT22;46892;45.668;11.756;2023-05-10T00:16:13;16.00;61.20
55313;DHT22;46892;45.668;11.756;2023-05-10T00:18:39;16.10;59.70
55313;DHT22;46892;45.668;11.756;2023-05-10T00:21:05;16.00;60.70
55313;DHT22;46892;45.668;11.756;2023-05-10T00:23:30;16.00;61.00
55313;DHT22;46892;45.668;11.756;2023-05-10T00:25:56;16.00;61.00
55313;DHT22;46892;45.668;11.756;2023-05-10T00:28:22;16.00;61.30
55313;DHT22;46892;45.668;11.756;2023-05-10T00:30:48;15.90;61.20
55313;DHT22;46892;45.668;11.756;2023-05-10T00:33:13;15.80;62.10
55313;DHT22;46892;45.668;11.756;2023-05-10T00:35:39;15.80;62.40
55313;DHT22;46892;45.668;11.756;2023-05-10T00:38:05;15.80;63.00
55313;DHT22;46892;45.668;11.756;2023-05-10T00:40:31;15.80;63.60
55313;DHT22;46892;45.668;11.756;2023-05-10T00:42:57;15.80;62.70
55313;DHT22;46892;45.668;11.756;2023-05-10T00:45:24;15.80;63.60
55313;DHT22;46892;45.668;11.756;2023-05-10T00:47:51;15.80;64.00
55313;DHT22;46892;45.668;11.756;2023-05-10T00:50:21;15.80;63.40
55313;DHT22;46892;45.668;11.756;2023-05-10T00:52:47;15.80;64.00
55313;DHT22;46892;45.668;11.756;2023-05-10T00:55:13;15.70;64.10
55313;DHT22;46892;45.668;11.756;2023-05-10T00:57:39;15.70;63.60
55313;DHT22;46892;45.668;11.756;2023-05-10T01:00:05;15.70;64.50
55313;DHT22;46892;45.668;11.756;2023-05-10T01:02:32;15.70;64.30
55313;DHT22;46892;45.668;11.756;2023-05-10T01:04:59;15.60;64.20
55313;DHT22;46892;45.668;11.756;2023-05-10T01:07:25;15.60;64.20
55313;DHT22;46892;45.668;11.756;2023-05-10T01:09:51;15.60;64.50
55313;DHT22;46892;45.668;11.756;2023-05-10T01:12:16;15.60;65.10
55313;DHT22;46892;45.668;11.756;2023-05-10T01:14:42;15.50;66.10
55313;DHT22;46892;45.668;11.756;2023-05-10T01:17:09;15.40;66.90
55313;DHT22;46892;45.668;11.756;2023-05-10T01:19:36;15.40;67.60
55313;DHT22;46892;45.668;11.756;2023-05-10T01:31:03;15.20;68.00
55313;DHT22;46892;45.668;11.756;2023-05-10T01:39:17;15.20;68.80
55313;DHT22;46892;45.668;11.756;2023-05-10T01:41:54;15.20;68.20
55313;DHT22;46892;45.668;11.756;2023-05-10T01:44:29;15.10;69.30
55313;DHT22;46892;45.668;11.756;2023-05-10T01:47:04;15.20;68.80
55313;DHT22;46892;45.668;11.756;2023-05-10T01:49:34;15.20;68.30
55313;DHT22;46892;45.668;11.756;2023-05-10T01:52:08;15.20;68.60
55313;DHT22;46892;45.668;11.756;2023-05-10T01:54:35;15.20;68.40
55313;DHT22;46892;45.668;11.756;2023-05-10T01:57:06;15.20;68.90
55313;DHT22;46892;45.668;11.756;2023-05-10T01:59:35;15.20;68.90
55313;DHT22;46892;45.668;11.756;2023-05-10T02:02:02;15.20;68.90
55313;DHT22;46892;45.668;11.756;2023-05-10T02:04:30;15.20;68.70
55313;DHT22;46892;45.668;11.756;2023-05-10T02:06:57;15.20;70.10
55313;DHT22;46892;45.668;11.756;2023-05-10T02:09:24;15.20;69.60
55313;DHT22;46892;45.668;11.756;2023-05-10T02:11:50;15.10;68.60
55313;DHT22;46892;45.668;11.756;2023-05-10T02:14:18;15.10;69.60
55313;DHT22;46892;45.668;11.756;2023-05-10T02:16:45;15.20;68.40
55313;DHT22;46892;45.668;11.756;2023-05-10T02:19:12;15.10;68.70
55313;DHT22;46892;45.668;11.756;2023-05-10T02:21:40;15.10;68.90
55313;DHT22;46892;45.668;11.756;2023-05-10T02:24:07;15.10;68.80
55313;DHT22;46892;45.668;11.756;2023-05-10T02:26:34;15.00;68.40
55313;DHT22;46892;45.668;11.756;2023-05-10T02:29:02;15.10;68.00
55313;DHT22;46892;45.668;11.756;2023-05-10T02:31:31;15.00;67.40
55313;DHT22;46892;45.668;11.756;2023-05-10T02:33:57;15.00;66.60
55313;DHT22;46892;45.668;11.756;2023-05-10T02:36:24;15.00;66.70
55313;DHT22;46892;45.668;11.756;2023-05-10T02:38:53;14.90;67.10
55313;DHT22;46892;45.668;11.756;2023-05-10T02:41:20;15.00;67.00
55313;DHT22;46892;45.668;11.756;2023-05-10T02:43:52;15.00;66.90
55313;DHT22;46892;45.668;11.756;2023-05-10T02:46:20;14.90;66.80
55313;DHT22;46892;45.668;11.756;2023-05-10T02:48:46;15.00;67.00
55313;DHT22;46892;45.668;11.756;2023-05-10T02:51:14;15.00;65.80
55313;DHT22;46892;45.668;11.756;2023-05-10T02:53:44;15.00;66.60
55313;DHT22;46892;45.668;11.756;2023-05-10T02:56:33;14.90;65.70
55313;DHT22;46892;45.668;11.756;2023-05-10T02:58:59;14.80;66.60
55313;DHT22;46892;45.668;11.756;2023-05-10T03:01:25;14.80;67.00
55313;DHT22;46892;45.668;11.756;2023-05-10T03:03:51;14.90;66.80
55313;DHT22;46892;45.668;11.756;2023-05-10T03:06:17;15.00;67.00
55313;DHT22;46892;45.668;11.756;2023-05-10T03:08:44;15.00;68.10
55313;DHT22;46892;45.668;11.756;2023-05-10T03:15:08;14.80;67.10
55313;DHT22;46892;45.668;11.756;2023-05-10T03:17:23;14.80;67.40
55313;DHT22;46892;45.668;11.756;2023-05-10T03:19:58;14.70;67.50
55313;DHT22;46892;45.668;11.756;2023-05-10T03:22:26;14.70;67.70
55313;DHT22;46892;45.668;11.756;2023-05-10T03:24:55;14.60;67.90
55313;DHT22;46892;45.668;11.756;2023-05-10T03:27:23;14.60;66.70
55313;DHT22;46892;45.668;11.756;2023-05-10T03:29:51;14.60;67.50
55313;DHT22;46892;45.668;11.756;2023-05-10T03:32:17;14.50;66.50
55313;DHT22;46892;45.668;11.756;2023-05-10T03:34:43;14.40;66.10
55313;DHT22;46892;45.668;11.756;2023-05-10T03:37:09;14.40;66.80
55313;DHT22;46892;45.668;11.756;2023-05-10T03:39:35;14.40;67.20
55313;DHT22;46892;45.668;11.756;2023-05-10T03:42:01;14.30;67.40
55313;DHT22;46892;45.668;11.756;2023-05-10T03:44:27;14.30;67.90
55313;DHT22;46892;45.668;11.756;2023-05-10T03:46:53;14.30;68.60
55313;DHT22;46892;45.668;11.756;2023-05-10T03:49:18;14.30;68.60
55313;DHT22;46892;45.668;11.756;2023-05-10T03:51:44;14.30;67.80
55313;DHT22;46892;45.668;11.756;2023-05-10T03:54:09;14.30;68.30
55313;DHT22;46892;45.668;11.756;2023-05-10T03:56:35;14.30;68.70
55313;DHT22;46892;45.668;11.756;2023-05-10T03:59:01;14.30;69.30
55313;DHT22;46892;45.668;11.756;2023-05-10T04:01:27;14.20;69.50
55313;DHT22;46892;45.668;11.756;2023-05-10T04:03:52;14.20;69.30
55313;DHT22;46892;45.668;11.756;2023-05-10T04:06:18;14.10;69.20
55313;DHT22;46892;45.668;11.756;2023-05-10T04:08:44;14.00;69.10
55313;DHT22;46892;45.668;11.756;2023-05-10T04:11:11;14.10;69.40
55313;DHT22;46892;45.668;11.756;2023-05-10T04:13:37;14.00;69.20
55313;DHT22;46892;45.668;11.756;2023-05-10T04:16:03;14.00;70.10
55313;DHT22;46892;45.668;11.756;2023-05-10T04:18:30;14.00;69.70
55313;DHT22;46892;45.668;11.756;2023-05-10T04:20:56;14.00;69.30
55313;DHT22;46892;45.668;11.756;2023-05-10T04:23:21;14.00;69.50
55313;DHT22;46892;45.668;11.756;2023-05-10T04:25:47;14.00;69.70
55313;DHT22;46892;45.668;11.756;2023-05-10T04:28:13;13.90;70.00
55313;DHT22;46892;45.668;11.756;2023-05-10T04:30:38;13.90;69.90
55313;DHT22;46892;45.668;11.756;2023-05-10T04:33:04;13.90;70.40
55313;DHT22;46892;45.668;11.756;2023-05-10T04:35:30;13.90;70.20
55313;DHT22;46892;45.668;11.756;2023-05-10T04:37:55;13.80;70.00
55313;DHT22;46892;45.668;11.756;2023-05-10T04:40:21;13.80;70.40
55313;DHT22;46892;45.668;11.756;2023-05-10T04:42:47;13.80;70.30
55313;DHT22;46892;45.668;11.756;2023-05-10T04:45:13;13.80;70.50
55313;DHT22;46892;45.668;11.756;2023-05-10T04:47:40;13.80;71.60
55313;DHT22;46892;45.668;11.756;2023-05-10T04:50:06;13.80;71.70
55313;DHT22;46892;45.668;11.756;2023-05-10T04:52:32;13.80;71.40
55313;DHT22;46892;45.668;11.756;2023-05-10T04:54:58;13.80;71.80
55313;DHT22;46892;45.668;11.756;2023-05-10T04:57:24;13.80;71.60
55313;DHT22;46892;45.668;11.756;2023-05-10T04:59:49;13.70;72.30
55313;DHT22;46892;45.668;11.756;2023-05-10T05:02:15;13.70;72.60
55313;DHT22;46892;45.668;11.756;2023-05-10T05:04:40;13.70;73.50
55313;DHT22;46892;45.668;11.756;2023-05-10T05:07:06;13.70;73.10
55313;DHT22;46892;45.668;11.756;2023-05-10T05:09:32;13.60;73.30
55313;DHT22;46892;45.668;11.756;2023-05-10T05:11:58;13.60;74.00
55313;DHT22;46892;45.668;11.756;2023-05-10T05:14:23;13.70;74.10
55313;DHT22;46892;45.668;11.756;2023-05-10T05:16:51;13.60;74.40
55313;DHT22;46892;45.668;11.756;2023-05-10T05:19:17;13.70;73.70
55313;DHT22;46892;45.668;11.756;2023-05-10T05:21:43;13.60;74.20
55313;DHT22;46892;45.668;11.756;2023-05-10T05:24:08;13.60;75.00
55313;DHT22;46892;45.668;11.756;2023-05-10T05:26:35;13.50;75.40
55313;DHT22;46892;45.668;11.756;2023-05-10T05:29:02;13.50;75.80
55313;DHT22;46892;45.668;11.756;2023-05-10T05:31:28;13.40;75.40
55313;DHT22;46892;45.668;11.756;2023-05-10T05:33:54;13.40;75.70
55313;DHT22;46892;45.668;11.756;2023-05-10T05:36:19;13.30;75.90
55313;DHT22;46892;45.668;11.756;2023-05-10T05:38:45;13.40;76.60
55313;DHT22;46892;45.668;11.756;2023-05-10T05:41:11;13.30;76.80
55313;DHT22;46892;45.668;11.756;2023-05-10T05:43:36;13.40;76.70
55313;DHT22;46892;45.668;11.756;2023-05-10T05:46:02;13.30;76.60
55313;DHT22;46892;45.668;11.756;2023-05-10T05:48:29;13.30;76.40
55313;DHT22;46892;45.668;11.756;2023-05-10T05:50:55;13.30;76.70
55313;DHT22;46892;45.668;11.756;2023-05-10T05:53:24;13.30;76.90
55313;DHT22;46892;45.668;11.756;2023-05-10T05:55:53;13.30;77.00
55313;DHT22;46892;45.668;11.756;2023-05-10T05:58:20;13.30;77.40
55313;DHT22;46892;45.668;11.756;2023-05-10T06:00:46;13.20;76.80
55313;DHT22;46892;45.668;11.756;2023-05-10T06:03:11;13.20;77.00
55313;DHT22;46892;45.668;11.756;2023-05-10T06:05:37;13.20;77.40
55313;DHT22;46892;45.668;11.756;2023-05-10T06:08:03;13.20;77.30
55313;DHT22;46892;45.668;11.756;2023-05-10T06:10:29;13.20;77.30
55313;DHT22;46892;45.668;11.756;2023-05-10T06:12:55;13.20;77.60
55313;DHT22;46892;45.668;11.756;2023-05-10T06:15:21;13.20;78.20
55313;DHT22;46892;45.668;11.756;2023-05-10T06:17:47;13.30;78.10
55313;DHT22;46892;45.668;11.756;2023-05-10T06:20:15;13.30;79.00
55313;DHT22;46892;45.668;11.756;2023-05-10T06:22:41;13.30;79.50
55313;DHT22;46892;45.668;11.756;2023-05-10T06:25:08;13.30;79.40
55313;DHT22;46892;45.668;11.756;2023-05-10T06:27:33;13.30;79.30
55313;DHT22;46892;45.668;11.756;2023-05-10T06:29:59;13.30;78.50
55313;DHT22;46892;45.668;11.756;2023-05-10T06:32:25;13.30;78.70
55313;DHT22;46892;45.668;11.756;2023-05-10T06:34:51;13.30;78.90
55313;DHT22;46892;45.668;11.756;2023-05-10T06:37:17;13.30;78.90
55313;DHT22;46892;45.668;11.756;2023-05-10T06:39:43;13.30;78.60
55313;DHT22;46892;45.668;11.756;2023-05-10T06:42:08;13.20;78.90
55313;DHT22;46892;45.668;11.756;2023-05-10T06:44:34;13.20;80.30
55313;DHT22;46892;45.668;11.756;2023-05-10T06:47:00;13.20;80.00
55313;DHT22;46892;45.668;11.756;2023-05-10T06:49:26;13.20;80.60
55313;DHT22;46892;45.668;11.756;2023-05-10T06:51:51;13.20;80.60
55313;DHT22;46892;45.668;11.756;2023-05-10T06:54:17;13.20;80.60
55313;DHT22;46892;45.668;11.756;2023-05-10T06:56:43;13.10;80.50
55313;DHT22;46892;45.668;11.756;2023-05-10T06:59:09;13.10;81.00
55313;DHT22;46892;45.668;11.756;2023-05-10T07:01:34;13.10;80.40
55313;DHT22;46892;45.668;11.756;2023-05-10T07:04:00;13.10;80.90
55313;DHT22;46892;45.668;11.756;2023-05-10T07:06:26;13.00;80.30
55313;DHT22;46892;45.668;11.756;2023-05-10T07:08:52;13.00;81.00
55313;DHT22;46892;45.668;11.756;2023-05-10T07:11:18;13.10;81.50
55313;DHT22;46892;45.668;11.756;2023-05-10T07:13:44;13.00;81.00
55313;DHT22;46892;45.668;11.756;2023-05-10T07:16:11;13.00;80.40
55313;DHT22;46892;45.668;11.756;2023-05-10T07:18:37;13.00;80.80
55313;DHT22;46892;45.668;11.756;2023-05-10T07:21:03;13.00;81.10
55313;DHT22;46892;45.668;11.756;2023-05-10T07:23:28;13.10;81.90
55313;DHT22;46892;45.668;11.756;2023-05-10T07:25:55;13.10;81.50
55313;DHT22;46892;45.668;11.756;2023-05-10T07:28:23;13.10;81.40
55313;DHT22;46892;45.668;11.756;2023-05-10T07:30:49;13.10;81.70
55313;DHT22;46892;45.668;11.756;2023-05-10T07:33:15;13.10;81.30
55313;DHT22;46892;45.668;11.756;2023-05-10T07:35:42;13.10;81.20
55313;DHT22;46892;45.668;11.756;2023-05-10T07:38:07;13.20;81.80
55313;DHT22;46892;45.668;11.756;2023-05-10T07:40:33;13.20;81.40
55313;DHT22;46892;45.668;11.756;2023-05-10T07:42:59;13.20;82.00
55313;DHT22;46892;45.668;11.756;2023-05-10T07:45:28;13.10;82.00
55313;DHT22;46892;45.668;11.756;2023-05-10T07:47:54;13.20;81.70
55313;DHT22;46892;45.668;11.756;2023-05-10T07:50:19;13.10;82.00
55313;DHT22;46892;45.668;11.756;2023-05-10T07:52:47;13.20;82.20
55313;DHT22;46892;45.668;11.756;2023-05-10T07:55:13;13.20;82.20
55313;DHT22;46892;45.668;11.756;2023-05-10T07:57:39;13.20;82.00
55313;DHT22;46892;45.668;11.756;2023-05-10T08:00:06;13.20;81.30
55313;DHT22;46892;45.668;11.756;2023-05-10T08:02:33;13.20;81.60
55313;DHT22;46892;45.668;11.756;2023-05-10T08:04:59;13.20;82.10
55313;DHT22;46892;45.668;11.756;2023-05-10T08:07:24;13.30;82.20
55313;DHT22;46892;45.668;11.756;2023-05-10T08:09:50;13.20;82.10
55313;DHT22;46892;45.668;11.756;2023-05-10T08:12:17;13.20;81.70
55313;DHT22;46892;45.668;11.756;2023-05-10T08:14:42;13.20;81.60
55313;DHT22;46892;45.668;11.756;2023-05-10T08:17:08;13.10;80.50
55313;DHT22;46892;45.668;11.756;2023-05-10T08:19:34;13.10;81.50
55313;DHT22;46892;45.668;11.756;2023-05-10T08:22:00;13.10;81.90
55313;DHT22;46892;45.668;11.756;2023-05-10T08:24:25;13.00;82.20
55313;DHT22;46892;45.668;11.756;2023-05-10T08:26:51;13.00;82.50
55313;DHT22;46892;45.668;11.756;2023-05-10T08:29:17;13.10;82.50
55313;DHT22;46892;45.668;11.756;2023-05-10T08:31:43;13.10;82.00
55313;DHT22;46892;45.668;11.756;2023-05-10T08:34:08;13.10;82.10
55313;DHT22;46892;45.668;11.756;2023-05-10T08:36:34;13.10;82.20
55313;DHT22;46892;45.668;11.756;2023-05-10T08:39:02;13.10;82.50
55313;DHT22;46892;45.668;11.756;2023-05-10T08:41:30;13.00;82.00
55313;DHT22;46892;45.668;11.756;2023-05-10T08:43:57;13.00;81.80
55313;DHT22;46892;45.668;11.756;2023-05-10T08:46:23;13.00;81.90
55313;DHT22;46892;45.668;11.756;2023-05-10T08:48:51;13.10;81.90
55313;DHT22;46892;45.668;11.756;2023-05-10T08:51:19;13.00;81.90
55313;DHT22;46892;45.668;11.756;2023-05-10T08:53:45;12.90;82.10
55313;DHT22;46892;45.668;11.756;2023-05-10T08:56:11;12.90;82.00
55313;DHT22;46892;45.668;11.756;2023-05-10T08:58:38;12.90;82.00
55313;DHT22;46892;45.668;11.756;2023-05-10T09:01:05;12.90;82.20
55313;DHT22;46892;45.668;11.756;2023-05-10T09:03:31;13.00;82.70
55313;DHT22;46892;45.668;11.756;2023-05-10T09:05:58;13.00;83.60
55313;DHT22;46892;45.668;11.756;2023-05-10T09:08:24;13.00;82.80
55313;DHT22;46892;45.668;11.756;2023-05-10T09:10:54;13.00;83.40
55313;DHT22;46892;45.668;11.756;2023-05-10T09:13:22;13.10;83.10
55313;DHT22;46892;45.668;11.756;2023-05-10T09:15:48;13.00;82.40
55313;DHT22;46892;45.668;11.756;2023-05-10T09:18:14;13.10;83.90
55313;DHT22;46892;45.668;11.756;2023-05-10T09:20:40;13.10;83.40
55313;DHT22;46892;45.668;11.756;2023-05-10T09:23:06;13.10;83.90
55313;DHT22;46892;45.668;11.756;2023-05-10T09:25:32;13.00;83.80
55313;DHT22;46892;45.668;11.756;2023-05-10T09:28:01;13.10;84.00
55313;DHT22;46892;45.668;11.756;2023-05-10T09:30:30;13.00;83.90
55313;DHT22;46892;45.668;11.756;2023-05-10T09:32:58;13.00;84.10
55313;DHT22;46892;45.668;11.756;2023-05-10T09:35:26;13.00;84.60
55313;DHT22;46892;45.668;11.756;2023-05-10T09:37:54;13.00;84.30
55313;DHT22;46892;45.668;11.756;2023-05-10T09:40:22;13.00;84.60
55313;DHT22;46892;45.668;11.756;2023-05-10T09:45:17;13.00;83.80
55313;DHT22;46892;45.668;11.756;2023-05-10T09:47:43;13.00;83.80
55313;DHT22;46892;45.668;11.756;2023-05-10T09:50:09;13.00;83.50
55313;DHT22;46892;45.668;11.756;2023-05-10T09:52:55;13.10;83.90
55313;DHT22;46892;45.668;11.756;2023-05-10T09:55:24;13.00;84.10
55313;DHT22;46892;45.668;11.756;2023-05-10T09:57:59;13.00;83.70
55313;DHT22;46892;45.668;11.756;2023-05-10T10:00:26;13.00;83.80
55313;DHT22;46892;45.668;11.756;2023-05-10T10:02:59;13.00;83.60
55313;DHT22;46892;45.668;11.756;2023-05-10T10:05:32;13.00;83.40
55313;DHT22;46892;45.668;11.756;2023-05-10T10:08:00;12.90;84.10
55313;DHT22;46892;45.668;11.756;2023-05-10T10:10:26;13.00;83.60
55313;DHT22;46892;45.668;11.756;2023-05-10T10:12:53;13.00;84.10
55313;DHT22;46892;45.668;11.756;2023-05-10T10:15:20;13.00;84.80
55313;DHT22;46892;45.668;11.756;2023-05-10T10:17:46;13.00;84.60
55313;DHT22;46892;45.668;11.756;2023-05-10T10:20:12;13.10;84.80
55313;DHT22;46892;45.668;11.756;2023-05-10T10:22:38;13.00;85.30
55313;DHT22;46892;45.668;11.756;2023-05-10T10:25:04;13.10;84.80
55313;DHT22;46892;45.668;11.756;2023-05-10T10:30:43;13.00;85.30
55313;DHT22;46892;45.668;11.756;2023-05-10T10:35:58;13.00;85.30
55313;DHT22;46892;45.668;11.756;2023-05-10T10:38:25;13.00;85.20
55313;DHT22;46892;45.668;11.756;2023-05-10T10:52:24;13.00;86.10
55313;DHT22;46892;45.668;11.756;2023-05-10T10:57:54;13.10;86.00
55313;DHT22;46892;45.668;11.756;2023-05-10T11:00:34;13.20;85.80
55313;DHT22;46892;45.668;11.756;2023-05-10T11:05:45;13.10;86.50
55313;DHT22;46892;45.668;11.756;2023-05-10T11:08:27;13.20;86.80
55313;DHT22;46892;45.668;11.756;2023-05-10T11:11:04;13.20;86.70
55313;DHT22;46892;45.668;11.756;2023-05-10T11:13:34;13.30;86.70
55313;DHT22;46892;45.668;11.756;2023-05-10T11:16:23;13.30;86.30
55313;DHT22;46892;45.668;11.756;2023-05-10T11:19:07;13.30;87.00
55313;DHT22;46892;45.668;11.756;2023-05-10T11:21:34;13.30;86.60
55313;DHT22;46892;45.668;11.756;2023-05-10T11:24:01;13.30;86.30
55313;DHT22;46892;45.668;11.756;2023-05-10T11:26:32;13.40;86.20
55313;DHT22;46892;45.668;11.756;2023-05-10T11:28:59;13.40;86.00
55313;DHT22;46892;45.668;11.756;2023-05-10T11:31:26;13.40;86.00
55313;DHT22;46892;45.668;11.756;2023-05-10T11:33:59;13.40;85.70
55313;DHT22;46892;45.668;11.756;2023-05-10T11:36:29;13.40;85.50
55313;DHT22;46892;45.668;11.756;2023-05-10T11:38:55;13.40;85.70
55313;DHT22;46892;45.668;11.756;2023-05-10T11:41:22;13.30;86.00
55313;DHT22;46892;45.668;11.756;2023-05-10T11:43:52;13.30;85.80
55313;DHT22;46892;45.668;11.756;2023-05-10T11:46:25;13.30;85.90
55313;DHT22;46892;45.668;11.756;2023-05-10T11:48:53;13.30;86.10
55313;DHT22;46892;45.668;11.756;2023-05-10T11:51:24;13.40;86.20
55313;DHT22;46892;45.668;11.756;2023-05-10T11:53:52;13.40;86.00
55313;DHT22;46892;45.668;11.756;2023-05-10T11:56:18;13.30;86.60
55313;DHT22;46892;45.668;11.756;2023-05-10T11:58:55;13.20;86.90
55313;DHT22;46892;45.668;11.756;2023-05-10T12:01:21;13.30;86.80
55313;DHT22;46892;45.668;11.756;2023-05-10T12:03:51;13.20;87.10
55313;DHT22;46892;45.668;11.756;2023-05-10T12:06:18;13.20;87.00
55313;DHT22;46892;45.668;11.756;2023-05-10T12:08:46;13.20;87.20
55313;DHT22;46892;45.668;11.756;2023-05-10T12:11:12;13.20;87.10
55313;DHT22;46892;45.668;11.756;2023-05-10T12:13:43;13.10;87.60
55313;DHT22;46892;45.668;11.756;2023-05-10T12:16:25;13.20;88.10
55313;DHT22;46892;45.668;11.756;2023-05-10T12:18:55;13.20;88.00
55313;DHT22;46892;45.668;11.756;2023-05-10T12:21:21;13.20;87.80
55313;DHT22;46892;45.668;11.756;2023-05-10T12:23:52;13.20;87.90
55313;DHT22;46892;45.668;11.756;2023-05-10T12:26:18;13.30;87.90
55313;DHT22;46892;45.668;11.756;2023-05-10T12:28:44;13.30;88.10
55313;DHT22;46892;45.668;11.756;2023-05-10T12:31:09;13.30;87.90
55313;DHT22;46892;45.668;11.756;2023-05-10T12:33:40;13.30;88.20
55313;DHT22;46892;45.668;11.756;2023-05-10T12:36:11;13.30;87.70
55313;DHT22;46892;45.668;11.756;2023-05-10T12:38:39;13.20;87.70
55313;DHT22;46892;45.668;11.756;2023-05-10T12:41:06;13.10;87.60
55313;DHT22;46892;45.668;11.756;2023-05-10T12:43:34;13.20;87.70
55313;DHT22;46892;45.668;11.756;2023-05-10T12:46:06;13.20;87.80
55313;DHT22;46892;45.668;11.756;2023-05-10T12:48:32;13.20;87.80
55313;DHT22;46892;45.668;11.756;2023-05-10T12:50:59;13.10;87.30
55313;DHT22;46892;45.668;11.756;2023-05-10T12:53:25;13.10;87.80
55313;DHT22;46892;45.668;11.756;2023-05-10T12:55:51;13.00;88.00
55313;DHT22;46892;45.668;11.756;2023-05-10T12:58:17;13.00;88.20
55313;DHT22;46892;45.668;11.756;2023-05-10T13:00:42;13.00;88.20
55313;DHT22;46892;45.668;11.756;2023-05-10T13:03:09;12.90;88.50
55313;DHT22;46892;45.668;11.756;2023-05-10T13:05:36;13.00;88.90
55313;DHT22;46892;45.668;11.756;2023-05-10T13:08:01;13.00;88.70
55313;DHT22;46892;45.668;11.756;2023-05-10T13:10:29;13.10;88.20
55313;DHT22;46892;45.668;11.756;2023-05-10T13:12:55;13.10;88.20
55313;DHT22;46892;45.668;11.756;2023-05-10T13:15:21;13.10;87.70
55313;DHT22;46892;45.668;11.756;2023-05-10T13:17:47;13.10;88.20
55313;DHT22;46892;45.668;11.756;2023-05-10T13:20:13;13.00;88.10
55313;DHT22;46892;45.668;11.756;2023-05-10T13:22:39;13.00;87.70
55313;DHT22;46892;45.668;11.756;2023-05-10T13:25:05;13.00;88.10
55313;DHT22;46892;45.668;11.756;2023-05-10T13:27:31;13.00;88.00
55313;DHT22;46892;45.668;11.756;2023-05-10T13:29:56;13.00;88.30
55313;DHT22;46892;45.668;11.756;2023-05-10T13:32:25;13.10;88.40
55313;DHT22;46892;45.668;11.756;2023-05-10T13:34:51;13.10;88.40
55313;DHT22;46892;45.668;11.756;2023-05-10T13:37:16;13.10;88.70
55313;DHT22;46892;45.668;11.756;2023-05-10T13:39:42;13.20;88.70
55313;DHT22;46892;45.668;11.756;2023-05-10T13:42:08;13.20;88.60
55313;DHT22;46892;45.668;11.756;2023-05-10T13:44:33;13.20;88.50
55313;DHT22;46892;45.668;11.756;2023-05-10T13:46:59;13.20;88.50
55313;DHT22;46892;45.668;11.756;2023-05-10T13:49:26;13.20;88.30
55313;DHT22;46892;45.668;11.756;2023-05-10T13:51:52;13.20;88.30
55313;DHT22;46892;45.668;11.756;2023-05-10T13:54:17;13.20;88.20
55313;DHT22;46892;45.668;11.756;2023-05-10T13:56:45;13.20;88.40
55313;DHT22;46892;45.668;11.756;2023-05-10T13:59:12;13.20;88.70
55313;DHT22;46892;45.668;11.756;2023-05-10T14:01:42;13.20;88.60
55313;DHT22;46892;45.668;11.756;2023-05-10T14:04:08;13.20;88.70
55313;DHT22;46892;45.668;11.756;2023-05-10T14:06:36;13.20;88.80
55313;DHT22;46892;45.668;11.756;2023-05-10T14:09:02;13.30;88.60
55313;DHT22;46892;45.668;11.756;2023-05-10T14:11:28;13.20;88.50
55313;DHT22;46892;45.668;11.756;2023-05-10T14:13:54;13.30;88.40
55313;DHT22;46892;45.668;11.756;2023-05-10T14:16:20;13.30;88.00
55313;DHT22;46892;45.668;11.756;2023-05-10T14:18:46;13.30;87.80
55313;DHT22;46892;45.668;11.756;2023-05-10T14:21:12;13.20;88.20
55313;DHT22;46892;45.668;11.756;2023-05-10T14:23:37;13.20;88.10
55313;DHT22;46892;45.668;11.756;2023-05-10T14:26:03;13.30;88.00
55313;DHT22;46892;45.668;11.756;2023-05-10T14:28:29;13.20;88.10
55313;DHT22;46892;45.668;11.756;2023-05-10T14:30:55;13.20;88.00
55313;DHT22;46892;45.668;11.756;2023-05-10T14:33:20;13.20;88.30
55313;DHT22;46892;45.668;11.756;2023-05-10T14:35:47;13.20;88.70
55313;DHT22;46892;45.668;11.756;2023-05-10T14:38:13;13.20;88.20
55313;DHT22;46892;45.668;11.756;2023-05-10T14:40:39;13.20;88.40
55313;DHT22;46892;45.668;11.756;2023-05-10T14:43:04;13.20;88.50
55313;DHT22;46892;45.668;11.756;2023-05-10T14:45:30;13.30;88.50
55313;DHT22;46892;45.668;11.756;2023-05-10T14:47:57;13.20;88.20
55313;DHT22;46892;45.668;11.756;2023-05-10T14:50:23;13.30;88.30
55313;DHT22;46892;45.668;11.756;2023-05-10T14:52:48;13.30;88.20
55313;DHT22;46892;45.668;11.756;2023-05-10T14:55:14;13.30;88.50
55313;DHT22;46892;45.668;11.756;2023-05-10T14:57:40;13.30;88.60
55313;DHT22;46892;45.668;11.756;2023-05-10T15:00:07;13.30;88.60
55313;DHT22;46892;45.668;11.756;2023-05-10T15:02:32;13.30;88.60
55313;DHT22;46892;45.668;11.756;2023-05-10T15:04:58;13.30;88.50
55313;DHT22;46892;45.668;11.756;2023-05-10T15:07:24;13.30;88.60
55313;DHT22;46892;45.668;11.756;2023-05-10T15:09:50;13.30;88.90
55313;DHT22;46892;45.668;11.756;2023-05-10T15:12:17;13.30;88.90
55313;DHT22;46892;45.668;11.756;2023-05-10T15:14:43;13.30;88.70
55313;DHT22;46892;45.668;11.756;2023-05-10T15:17:09;13.30;89.00
55313;DHT22;46892;45.668;11.756;2023-05-10T15:19:35;13.20;89.00
55313;DHT22;46892;45.668;11.756;2023-05-10T15:22:02;13.20;88.90
55313;DHT22;46892;45.668;11.756;2023-05-10T15:24:28;13.20;89.00
55313;DHT22;46892;45.668;11.756;2023-05-10T15:26:54;13.20;88.80
55313;DHT22;46892;45.668;11.756;2023-05-10T15:29:20;13.20;89.20
55313;DHT22;46892;45.668;11.756;2023-05-10T15:31:50;13.20;89.10
55313;DHT22;46892;45.668;11.756;2023-05-10T15:34:16;13.10;89.10
55313;DHT22;46892;45.668;11.756;2023-05-10T15:36:43;13.20;88.70
55313;DHT22;46892;45.668;11.756;2023-05-10T15:39:08;13.20;88.70
55313;DHT22;46892;45.668;11.756;2023-05-10T15:41:37;13.20;88.90
55313;DHT22;46892;45.668;11.756;2023-05-10T15:44:03;13.20;89.30
55313;DHT22;46892;45.668;11.756;2023-05-10T15:46:29;13.10;89.40
55313;DHT22;46892;45.668;11.756;2023-05-10T15:48:58;13.20;89.50
55313;DHT22;46892;45.668;11.756;2023-05-10T15:51:25;13.20;89.40
55313;DHT22;46892;45.668;11.756;2023-05-10T15:53:51;13.20;88.90
55313;DHT22;46892;45.668;11.756;2023-05-10T15:56:17;13.20;88.80
55313;DHT22;46892;45.668;11.756;2023-05-10T15:58:42;13.20;89.00